createdAt,value
2018-10-12T00:00:48.556Z,22.12
2018-10-12T00:03:17.581Z,22.16
2018-10-12T00:05:46.732Z,22.21
2018-10-12T00:08:15.802Z,22.24
2018-10-12T00:10:44.855Z,22.26
2018-10-12T00:13:13.886Z,22.27
2018-10-12T00:15:43.760Z,22.27
2018-10-12T00:18:12.817Z,22.27
2018-10-12T00:20:42.072Z,22.28
2018-10-12T00:23:11.121Z,22.28
2018-10-12T00:25:40.248Z,22.28
2018-10-12T00:28:09.286Z,22.28
2018-10-12T00:30:38.331Z,22.27
2018-10-12T00:33:07.340Z,22.24
2018-10-12T00:35:36.449Z,22.22
2018-10-12T00:38:05.628Z,22.19
2018-10-12T00:40:34.720Z,22.17
2018-10-12T00:43:03.777Z,22.17
2018-10-12T00:45:32.875Z,22.16
2018-10-12T00:48:02.600Z,22.13
2018-10-12T00:50:32.720Z,22.11
2018-10-12T00:53:02.197Z,22.09
2018-10-12T00:55:33.430Z,22.08
2018-10-12T00:58:02.430Z,22.07
2018-10-12T01:00:31.492Z,22.06
2018-10-12T01:03:00.520Z,22.07
2018-10-12T01:05:30.149Z,22.07
2018-10-12T01:07:59.193Z,22.07
2018-10-12T01:10:28.188Z,22.08
2018-10-12T01:12:57.200Z,22.10
2018-10-12T01:15:26.228Z,22.10
2018-10-12T01:17:55.343Z,22.10
2018-10-12T01:20:24.355Z,22.08
2018-10-12T01:22:53.334Z,22.07
2018-10-12T01:25:22.319Z,22.06
2018-10-12T01:27:51.311Z,22.06
2018-10-12T01:30:20.300Z,22.04
2018-10-12T01:32:54.585Z,22.04
2018-10-12T01:35:23.629Z,22.02
2018-10-12T01:37:52.676Z,21.99
2018-10-12T01:40:21.683Z,21.98
2018-10-12T01:42:50.772Z,21.94
2018-10-12T01:45:19.807Z,21.91
2018-10-12T01:47:48.952Z,21.90
2018-10-12T01:50:18.032Z,21.85
2018-10-12T01:52:47.072Z,21.83
2018-10-12T01:55:16.218Z,21.82
2018-10-12T01:57:45.285Z,21.82
2018-10-12T02:00:14.616Z,21.79
2018-10-12T02:02:43.765Z,21.76
2018-10-12T02:05:12.844Z,21.75
2018-10-12T02:07:41.900Z,21.73
2018-10-12T02:10:11.761Z,21.72
2018-10-12T02:12:40.748Z,21.69
2018-10-12T02:15:09.944Z,21.66
2018-10-12T02:17:39.047Z,21.65
2018-10-12T02:20:08.628Z,21.63
2018-10-12T02:22:37.632Z,21.61
2018-10-12T02:25:07.470Z,21.59
2018-10-12T02:27:36.470Z,21.60
2018-10-12T02:30:06.034Z,21.61
2018-10-12T02:32:35.014Z,21.62
2018-10-12T02:35:04.333Z,21.61
2018-10-12T02:37:33.327Z,21.62
2018-10-12T02:40:02.453Z,21.62
2018-10-12T02:42:31.474Z,21.61
2018-10-12T02:45:00.554Z,21.59
2018-10-12T02:47:29.931Z,21.56
2018-10-12T02:49:58.984Z,21.54
2018-10-12T02:52:28.000Z,21.52
2018-10-12T02:54:57.039Z,21.52
2018-10-12T02:57:27.048Z,21.50
2018-10-12T02:59:56.072Z,21.50
2018-10-12T03:02:25.090Z,21.47
2018-10-12T03:04:54.116Z,21.46
2018-10-12T03:07:23.142Z,21.43
2018-10-12T03:09:52.173Z,21.41
2018-10-12T03:12:21.235Z,21.39
2018-10-12T03:14:50.201Z,21.36
2018-10-12T03:17:19.236Z,21.35
2018-10-12T03:19:48.308Z,21.32
2018-10-12T03:22:17.369Z,21.31
2018-10-12T03:24:46.565Z,21.28
2018-10-12T03:27:16.507Z,21.24
2018-10-12T03:29:45.547Z,21.22
2018-10-12T03:32:14.592Z,21.20
2018-10-12T03:34:43.644Z,21.16
2018-10-12T03:37:12.868Z,21.13
2018-10-12T03:39:41.803Z,21.09
2018-10-12T03:42:10.951Z,21.05
2018-10-12T03:44:40.138Z,20.99
2018-10-12T03:47:09.356Z,20.95
2018-10-12T03:49:38.357Z,20.90
2018-10-12T03:52:09.528Z,20.87
2018-10-12T03:54:38.574Z,20.83
2018-10-12T03:57:07.589Z,20.81
2018-10-12T03:59:36.598Z,20.78
2018-10-12T04:02:05.637Z,20.76
2018-10-12T04:04:34.683Z,20.74
2018-10-12T04:07:03.760Z,20.73
2018-10-12T04:09:32.819Z,20.69
2018-10-12T04:12:01.855Z,20.67
2018-10-12T04:14:30.918Z,20.68
2018-10-12T04:16:59.970Z,20.67
2018-10-12T04:19:29.029Z,20.68
2018-10-12T04:21:58.100Z,20.68
2018-10-12T04:24:27.290Z,20.68
2018-10-12T04:26:56.366Z,20.67
2018-10-12T04:29:25.393Z,20.65
2018-10-12T04:31:54.397Z,20.65
2018-10-12T04:34:23.432Z,20.64
2018-10-12T04:36:52.549Z,20.63
2018-10-12T04:39:43.608Z,20.60
2018-10-12T04:42:13.058Z,20.54
2018-10-12T04:44:42.605Z,20.52
2018-10-12T04:47:12.964Z,20.53
2018-10-12T04:49:42.076Z,20.54
2018-10-12T04:52:11.244Z,20.53
2018-10-12T04:54:40.616Z,20.55
2018-10-12T04:57:10.560Z,20.56
2018-10-12T04:59:39.768Z,20.57
2018-10-12T05:02:08.777Z,20.57
2018-10-12T05:04:37.829Z,20.54
2018-10-12T05:07:07.036Z,20.53
2018-10-12T05:09:36.458Z,20.52
2018-10-12T05:12:05.706Z,20.51
2018-10-12T05:14:34.841Z,20.52
2018-10-12T05:17:03.987Z,20.50
2018-10-12T05:19:33.043Z,20.49
2018-10-12T05:22:02.292Z,20.49
2018-10-12T05:24:31.275Z,20.48
2018-10-12T05:27:00.324Z,20.47
2018-10-12T05:29:29.560Z,20.47
2018-10-12T05:31:58.617Z,20.46
2018-10-12T05:34:28.318Z,20.46
2018-10-12T05:36:57.456Z,20.47
2018-10-12T05:39:26.504Z,20.46
2018-10-12T05:41:55.606Z,20.44
2018-10-12T05:44:25.394Z,20.43
2018-10-12T05:46:54.425Z,20.43
2018-10-12T05:49:40.594Z,20.46
2018-10-12T05:52:09.634Z,20.46
2018-10-12T05:54:38.726Z,20.48
2018-10-12T05:57:07.710Z,20.54
2018-10-12T05:59:36.944Z,20.60
2018-10-12T06:02:06.020Z,20.66
2018-10-12T06:04:35.002Z,20.75
2018-10-12T06:07:04.010Z,20.86
2018-10-12T06:09:33.157Z,20.98
2018-10-12T06:12:02.123Z,21.13
2018-10-12T06:14:31.165Z,21.30
2018-10-12T06:17:00.261Z,21.54
2018-10-12T06:19:29.357Z,21.75
2018-10-12T06:21:58.421Z,21.93
2018-10-12T06:24:28.909Z,22.06
2018-10-12T06:26:58.785Z,22.19
2018-10-12T06:29:27.689Z,22.39
2018-10-12T06:31:56.846Z,22.60
2018-10-12T06:34:25.864Z,22.86
2018-10-12T06:36:55.907Z,23.05
2018-10-12T06:39:24.968Z,23.30
2018-10-12T06:41:54.042Z,23.54
2018-10-12T06:44:23.048Z,23.74
2018-10-12T06:46:52.209Z,23.93
2018-10-12T06:49:21.426Z,24.10
2018-10-12T06:51:50.468Z,24.18
2018-10-12T06:54:19.645Z,24.18
2018-10-12T06:56:48.673Z,24.18
2018-10-12T06:59:17.935Z,24.25
2018-10-12T07:01:46.956Z,24.39
2018-10-12T07:04:16.028Z,24.64
2018-10-12T07:06:45.045Z,24.89
2018-10-12T07:09:14.421Z,25.15
2018-10-12T07:11:43.482Z,25.44
2018-10-12T07:14:12.569Z,25.68
2018-10-12T07:16:41.705Z,25.93
2018-10-12T07:19:10.776Z,26.18
2018-10-12T07:21:39.824Z,26.39
2018-10-12T07:24:09.697Z,26.47
2018-10-12T07:26:38.744Z,26.37
2018-10-12T07:29:07.828Z,26.15
2018-10-12T07:31:36.965Z,25.92
2018-10-12T07:34:05.944Z,25.66
2018-10-12T07:36:34.964Z,25.45
2018-10-12T07:39:05.668Z,25.37
2018-10-12T07:41:34.712Z,25.26
2018-10-12T07:44:03.712Z,25.18
2018-10-12T07:46:32.708Z,25.14
2018-10-12T07:49:01.804Z,25.25
2018-10-12T07:51:30.843Z,25.44
2018-10-12T07:53:59.884Z,25.54
2018-10-12T07:56:28.918Z,25.76
2018-10-12T07:58:57.966Z,25.98
2018-10-12T08:01:27.337Z,26.03
2018-10-12T08:03:56.949Z,25.94
2018-10-12T08:06:26.143Z,25.80
2018-10-12T08:08:54.979Z,25.69
2018-10-12T08:11:23.997Z,25.60
2018-10-12T08:13:53.092Z,25.50
2018-10-12T08:16:22.016Z,25.40
2018-10-12T08:18:51.200Z,25.27
2018-10-12T08:21:20.251Z,25.19
2018-10-12T08:23:49.317Z,25.12
2018-10-12T08:26:18.357Z,25.06
2018-10-12T08:28:47.536Z,25.02
2018-10-12T08:31:16.705Z,24.99
2018-10-12T08:33:45.813Z,24.96
2018-10-12T08:36:14.891Z,24.96
2018-10-12T08:38:44.633Z,24.97
2018-10-12T08:41:13.662Z,24.99
2018-10-12T08:43:42.726Z,25.03
2018-10-12T08:46:11.773Z,25.05
2018-10-12T08:48:41.112Z,25.11
2018-10-12T08:51:10.122Z,25.17
2018-10-12T08:53:39.201Z,25.21
2018-10-12T08:56:08.188Z,25.24
2018-10-12T08:58:37.196Z,25.30
2018-10-12T09:01:06.341Z,25.34
2018-10-12T09:03:35.428Z,25.38
2018-10-12T09:06:04.425Z,25.43
2018-10-12T09:08:34.204Z,25.48
2018-10-12T09:11:03.261Z,25.59
2018-10-12T09:13:32.280Z,25.81
2018-10-12T09:16:01.337Z,25.99
2018-10-12T09:18:30.373Z,26.13
2018-10-12T09:20:59.461Z,26.25
2018-10-12T09:23:28.530Z,26.48
2018-10-12T09:25:57.578Z,26.97
2018-10-12T09:28:26.643Z,27.59
2018-10-12T09:30:55.660Z,28.21
2018-10-12T09:33:24.659Z,28.77
2018-10-12T09:35:53.696Z,29.26
2018-10-12T09:38:22.720Z,29.66
2018-10-12T09:40:51.697Z,30.03
2018-10-12T09:43:21.225Z,30.45
2018-10-12T09:45:50.205Z,30.87
2018-10-12T09:48:19.215Z,31.23
2018-10-12T09:50:48.196Z,31.54
2018-10-12T09:53:18.357Z,31.73
2018-10-12T09:55:47.458Z,31.76
2018-10-12T09:58:16.464Z,31.84
2018-10-12T10:00:50.832Z,31.95
2018-10-12T10:03:25.748Z,32.09
2018-10-12T10:05:54.934Z,32.24
2018-10-12T10:08:24.107Z,32.43
2018-10-12T10:10:53.050Z,32.50
2018-10-12T10:13:22.060Z,32.43
2018-10-12T10:15:51.092Z,32.41
2018-10-12T10:18:20.118Z,32.37
2018-10-12T10:20:49.170Z,32.28
2018-10-12T10:23:18.695Z,32.15
2018-10-12T10:25:47.285Z,32.10
2018-10-12T10:28:16.364Z,32.08
2018-10-12T10:30:45.472Z,32.06
2018-10-12T10:33:14.741Z,32.09
2018-10-12T10:35:44.447Z,32.14
2018-10-12T10:38:13.688Z,32.22
2018-10-12T10:40:42.907Z,32.28
2018-10-12T10:43:12.235Z,32.37
2018-10-12T10:45:41.533Z,32.39
2018-10-12T10:48:10.652Z,32.38
2018-10-12T10:50:39.739Z,32.37
2018-10-12T10:53:08.809Z,32.31
2018-10-12T10:55:38.966Z,32.23
2018-10-12T10:58:08.014Z,32.15
2018-10-12T11:00:37.101Z,32.14
2018-10-12T11:03:06.152Z,32.20
2018-10-12T11:05:35.207Z,32.23
2018-10-12T11:08:04.231Z,32.21
2018-10-12T11:10:33.234Z,32.25
2018-10-12T11:13:02.328Z,32.35
2018-10-12T11:15:31.351Z,32.47
2018-10-12T11:18:00.411Z,32.50
2018-10-12T11:20:29.974Z,32.41
2018-10-12T11:22:59.000Z,32.25
2018-10-12T11:25:28.084Z,32.08
2018-10-12T11:27:57.267Z,31.93
2018-10-12T11:30:26.453Z,31.81
2018-10-12T11:32:55.656Z,31.62
2018-10-12T11:35:24.727Z,31.45
2018-10-12T11:37:53.808Z,31.27
2018-10-12T11:40:22.864Z,31.19
2018-10-12T11:43:09.135Z,31.14
2018-10-12T11:45:38.327Z,31.04
2018-10-12T11:48:07.411Z,30.98
2018-10-12T11:50:36.482Z,30.88
2018-10-12T11:53:05.625Z,30.82
2018-10-12T11:55:34.738Z,30.69
2018-10-12T11:58:04.139Z,30.56
2018-10-12T12:00:33.292Z,30.44
2018-10-12T12:03:03.972Z,30.35
2018-10-12T12:05:32.889Z,30.27
2018-10-12T12:08:02.072Z,30.20
2018-10-12T12:10:31.273Z,30.16
2018-10-12T12:13:00.320Z,30.10
2018-10-12T12:15:29.418Z,30.07
2018-10-12T12:17:58.702Z,30.02
2018-10-12T12:20:28.160Z,29.99
2018-10-12T12:22:57.230Z,29.98
2018-10-12T12:25:29.666Z,29.94
2018-10-12T12:27:58.872Z,29.91
2018-10-12T12:30:27.848Z,29.89
2018-10-12T12:32:57.631Z,29.85
2018-10-12T12:35:27.120Z,29.80
2018-10-12T12:37:55.837Z,29.74
2018-10-12T12:40:24.840Z,29.72
2018-10-12T12:42:54.385Z,29.71
2018-10-12T12:45:23.640Z,29.72
2018-10-12T12:47:53.011Z,29.75
2018-10-12T12:50:21.853Z,29.79
2018-10-12T12:52:51.266Z,29.83
2018-10-12T12:55:20.460Z,29.87
2018-10-12T12:57:49.567Z,29.90
2018-10-12T13:00:18.794Z,29.89
2018-10-12T13:02:47.877Z,29.84
2018-10-12T13:05:16.928Z,29.77
2018-10-12T13:07:46.016Z,29.72
2018-10-12T13:10:16.278Z,29.67
2018-10-12T13:12:45.425Z,29.65
2018-10-12T13:15:14.492Z,29.63
2018-10-12T13:17:43.724Z,29.60
2018-10-12T13:20:13.076Z,29.58
2018-10-12T13:22:42.164Z,29.54
2018-10-12T13:25:11.325Z,29.51
2018-10-12T13:27:40.405Z,29.48
2018-10-12T13:30:09.563Z,29.43
2018-10-12T13:32:38.620Z,29.42
2018-10-12T13:35:08.107Z,29.42
2018-10-12T13:37:37.100Z,29.44
2018-10-12T13:40:06.263Z,29.44
2018-10-12T13:42:35.274Z,29.47
2018-10-12T13:45:04.325Z,29.49
2018-10-12T13:47:33.306Z,29.54
2018-10-12T13:50:02.299Z,29.53
2018-10-12T13:52:31.318Z,29.53
2018-10-12T13:55:00.422Z,29.51
2018-10-12T13:57:29.484Z,29.49
2018-10-12T13:59:58.493Z,29.47
2018-10-12T14:02:27.517Z,29.43
2018-10-12T14:04:56.559Z,29.38
2018-10-12T14:07:25.528Z,29.34
2018-10-12T14:09:54.529Z,29.32
2018-10-12T14:12:23.632Z,29.30
2018-10-12T14:14:52.649Z,29.29
2018-10-12T14:17:21.647Z,29.27
2018-10-12T14:19:50.655Z,29.26
2018-10-12T14:22:19.688Z,29.24
2018-10-12T14:24:49.701Z,29.22
2018-10-12T14:27:18.737Z,29.19
2018-10-12T14:29:47.777Z,29.17
2018-10-12T14:32:16.798Z,29.13
2018-10-12T14:34:46.902Z,29.11
2018-10-12T14:37:15.937Z,29.12
2018-10-12T14:39:45.021Z,29.14
2018-10-12T14:42:14.161Z,29.15
2018-10-12T14:44:43.237Z,29.14
2018-10-12T14:47:12.412Z,29.13
2018-10-12T14:49:42.315Z,29.12
2018-10-12T14:52:11.727Z,29.12
2018-10-12T14:54:40.719Z,29.07
2018-10-12T14:57:15.059Z,29.06
2018-10-12T14:59:44.438Z,29.04
2018-10-12T15:02:13.596Z,29.02
2018-10-12T15:04:42.645Z,29.00
2018-10-12T15:07:11.858Z,28.97
2018-10-12T15:09:40.955Z,28.95
2018-10-12T15:12:10.346Z,28.95
2018-10-12T15:14:56.622Z,28.92
2018-10-12T15:17:25.728Z,28.86
2018-10-12T15:19:54.765Z,28.84
2018-10-12T15:22:23.777Z,28.83
2018-10-12T15:24:52.915Z,28.82
2018-10-12T15:27:22.341Z,28.78
2018-10-12T15:29:51.601Z,28.75
2018-10-12T15:32:20.757Z,28.71
2018-10-12T15:34:49.822Z,28.67
2018-10-12T15:37:18.962Z,28.64
2018-10-12T15:39:48.026Z,28.59
2018-10-12T15:42:17.100Z,28.57
2018-10-12T15:44:46.154Z,28.53
2018-10-12T15:47:15.353Z,28.48
2018-10-12T15:49:44.452Z,28.42
2018-10-12T15:52:13.577Z,28.33
2018-10-12T15:54:42.749Z,28.26
2018-10-12T15:57:15.981Z,28.20
2018-10-12T15:59:45.181Z,28.14
2018-10-12T16:02:14.573Z,28.08
2018-10-12T16:04:43.935Z,28.03
2018-10-12T16:07:14.456Z,27.98
2018-10-12T16:09:44.643Z,27.90
2018-10-12T16:12:13.929Z,27.82
2018-10-12T16:14:43.076Z,27.74
2018-10-12T16:17:12.555Z,27.70
2018-10-12T16:19:43.362Z,27.65
2018-10-12T16:22:12.615Z,27.58
2018-10-12T16:24:58.595Z,27.53
2018-10-12T16:27:27.700Z,27.46
2018-10-12T16:29:57.000Z,27.43
2018-10-12T16:32:26.013Z,27.38
2018-10-12T16:34:55.382Z,27.32
2018-10-12T16:37:24.454Z,27.25
2018-10-12T16:39:53.580Z,27.19
2018-10-12T16:42:22.610Z,27.13
2018-10-12T16:44:51.666Z,27.08
2018-10-12T16:47:20.737Z,27.03
2018-10-12T16:49:50.228Z,26.95
2018-10-12T16:52:19.276Z,26.87
2018-10-12T16:54:48.305Z,26.79
2018-10-12T16:57:21.471Z,26.69
2018-10-12T16:59:50.616Z,26.61
2018-10-12T17:02:19.730Z,26.52
2018-10-12T17:04:49.605Z,26.45
2018-10-12T17:07:18.600Z,26.53
2018-10-12T17:09:47.630Z,26.44
2018-10-12T17:12:16.834Z,26.30
2018-10-12T17:14:45.988Z,26.21
2018-10-12T17:17:15.115Z,26.40
2018-10-12T17:19:44.514Z,26.27
2018-10-12T17:22:13.557Z,26.43
2018-10-12T17:24:42.816Z,26.21
2018-10-12T17:27:12.212Z,26.03
2018-10-12T17:29:42.261Z,25.88
2018-10-12T17:32:11.454Z,25.77
2018-10-12T17:34:40.529Z,25.68
2018-10-12T17:37:09.736Z,25.62
2018-10-12T17:39:38.819Z,25.54
2018-10-12T17:42:15.109Z,25.49
2018-10-12T17:44:44.386Z,25.41
2018-10-12T17:47:14.266Z,25.35
2018-10-12T17:49:43.524Z,25.31
2018-10-12T17:52:12.749Z,25.26
2018-10-12T17:54:41.946Z,25.24
2018-10-12T17:57:11.120Z,25.18
2018-10-12T17:59:40.241Z,25.15
2018-10-12T18:02:09.773Z,25.11
2018-10-12T18:04:39.738Z,25.09
2018-10-12T18:07:08.746Z,25.05
2018-10-12T18:09:37.781Z,25.47
2018-10-12T18:12:06.796Z,25.33
2018-10-12T18:14:35.832Z,25.19
2018-10-12T18:17:04.927Z,25.10
2018-10-12T18:19:34.126Z,25.06
2018-10-12T18:22:03.172Z,25.03
2018-10-12T18:24:32.296Z,25.02
2018-10-12T18:27:01.575Z,25.02
2018-10-12T18:29:31.453Z,25.01
2018-10-12T18:32:00.473Z,25.00
2018-10-12T18:34:29.528Z,24.99
2018-10-12T18:36:59.351Z,25.00
2018-10-12T18:39:28.316Z,24.99
2018-10-12T18:41:57.370Z,24.97
2018-10-12T18:44:26.444Z,24.96
2018-10-12T18:46:56.399Z,24.94
2018-10-12T18:49:25.541Z,24.90
2018-10-12T18:51:54.668Z,24.86
2018-10-12T18:54:23.764Z,24.82
2018-10-12T18:56:52.788Z,24.81
2018-10-12T18:59:21.827Z,24.81
2018-10-12T19:01:50.974Z,24.80
2018-10-12T19:04:20.098Z,24.81
2018-10-12T19:06:49.203Z,24.84
2018-10-12T19:09:18.380Z,24.84
2018-10-12T19:11:47.691Z,24.85
2018-10-12T19:14:16.874Z,24.85
2018-10-12T19:16:46.179Z,24.85
2018-10-12T19:19:15.562Z,24.83
2018-10-12T19:21:44.785Z,24.83
2018-10-12T19:24:14.207Z,24.80
2018-10-12T19:26:43.303Z,24.77
2018-10-12T19:29:12.571Z,24.74
2018-10-12T19:31:42.010Z,24.71
2018-10-12T19:34:11.780Z,24.67
2018-10-12T19:36:40.926Z,24.63
2018-10-12T19:39:10.733Z,24.60
2018-10-12T19:41:39.865Z,24.54
2018-10-12T19:44:09.718Z,24.49
2018-10-12T19:46:38.815Z,24.45
2018-10-12T19:49:08.517Z,24.39
2018-10-12T19:51:37.634Z,24.34
2018-10-12T19:54:06.876Z,24.30
2018-10-12T19:56:35.878Z,24.27
2018-10-12T19:59:05.121Z,24.23
2018-10-12T20:01:34.218Z,24.20
2018-10-12T20:04:03.265Z,24.16
2018-10-12T20:06:32.378Z,24.09
2018-10-12T20:09:01.454Z,24.05
2018-10-12T20:11:30.560Z,23.99
2018-10-12T20:13:59.605Z,23.96
2018-10-12T20:16:28.936Z,23.91
2018-10-12T20:18:57.989Z,23.85
2018-10-12T20:21:27.208Z,23.80
2018-10-12T20:23:56.304Z,23.76
2018-10-12T20:26:25.314Z,23.71
2018-10-12T20:28:54.479Z,23.67
2018-10-12T20:31:23.652Z,23.63
2018-10-12T20:33:52.741Z,23.55
2018-10-12T20:36:21.884Z,23.54
2018-10-12T20:38:51.185Z,23.46
2018-10-12T20:41:20.273Z,23.57
2018-10-12T20:43:49.343Z,23.47
2018-10-12T20:46:18.401Z,23.37
2018-10-12T20:48:47.464Z,23.27
2018-10-12T20:51:16.753Z,23.21
2018-10-12T20:53:45.892Z,23.14
2018-10-12T20:56:15.091Z,23.10
2018-10-12T20:58:44.320Z,23.07
2018-10-12T21:01:13.494Z,23.04
2018-10-12T21:03:42.690Z,23.02
2018-10-12T21:06:11.939Z,22.98
2018-10-12T21:08:41.244Z,22.97
2018-10-12T21:11:10.614Z,22.99
2018-10-12T21:13:39.707Z,23.00
2018-10-12T21:16:09.174Z,22.99
2018-10-12T21:18:38.343Z,23.00
2018-10-12T21:21:07.487Z,23.00
2018-10-12T21:23:36.557Z,23.02
2018-10-12T21:26:05.688Z,23.02
2018-10-12T21:28:34.798Z,23.02
2018-10-12T21:31:03.853Z,23.03
2018-10-12T21:33:32.937Z,23.02
2018-10-12T21:36:02.089Z,23.00
2018-10-12T21:38:31.211Z,22.97
2018-10-12T21:41:00.323Z,22.90
2018-10-12T21:43:29.459Z,22.86
2018-10-12T21:45:58.499Z,22.79
2018-10-12T21:48:27.497Z,22.74
2018-10-12T21:50:56.526Z,22.70
2018-10-12T21:53:25.698Z,22.64
2018-10-12T21:55:54.772Z,22.65
2018-10-12T21:58:23.854Z,22.66
2018-10-12T22:00:58.922Z,22.70
2018-10-12T22:03:27.958Z,22.74
2018-10-12T22:05:57.185Z,22.79
2018-10-12T22:08:31.599Z,22.86
2018-10-12T22:11:00.800Z,22.91
2018-10-12T22:13:29.865Z,22.98
2018-10-12T22:15:59.067Z,23.03
2018-10-12T22:18:28.366Z,23.08
2018-10-12T22:20:57.475Z,23.12
2018-10-12T22:23:26.606Z,23.18
2018-10-12T22:25:55.886Z,23.21
2018-10-12T22:28:24.819Z,23.25
2018-10-12T22:30:53.882Z,23.26
2018-10-12T22:33:23.040Z,23.29
2018-10-12T22:35:52.129Z,23.31
2018-10-12T22:38:21.213Z,23.35
2018-10-12T22:40:50.613Z,23.37
2018-10-12T22:43:19.680Z,23.40
2018-10-12T22:45:48.727Z,23.42
2018-10-12T22:48:17.776Z,23.44
2018-10-12T22:50:46.817Z,23.45
2018-10-12T22:53:15.960Z,23.46
2018-10-12T22:55:45.009Z,23.45
2018-10-12T22:58:14.075Z,23.44
2018-10-12T23:00:43.253Z,23.43
2018-10-12T23:03:12.296Z,23.40
2018-10-12T23:05:41.361Z,23.39
2018-10-12T23:08:10.448Z,23.83
2018-10-12T23:10:39.556Z,23.72
2018-10-12T23:13:08.632Z,23.60
2018-10-12T23:15:37.768Z,23.52
2018-10-12T23:18:06.901Z,23.44
2018-10-12T23:20:35.924Z,23.38
2018-10-12T23:23:05.295Z,23.32
2018-10-12T23:25:34.315Z,23.27
2018-10-12T23:28:03.415Z,23.24
2018-10-12T23:30:32.467Z,23.21
2018-10-12T23:33:18.701Z,23.17
2018-10-12T23:35:47.733Z,23.11
2018-10-12T23:38:16.825Z,23.10
2018-10-12T23:40:45.970Z,23.10
2018-10-12T23:43:15.300Z,23.44
2018-10-12T23:45:44.482Z,23.42
2018-10-12T23:48:15.970Z,23.36
2018-10-12T23:50:45.060Z,23.34
2018-10-12T23:53:15.172Z,23.34
2018-10-12T23:55:44.227Z,23.37
2018-10-12T23:58:13.238Z,23.39
